createdAt,value
2022-08-29T00:01:23.165Z,1.52
2022-08-29T00:03:51.277Z,1.45
2022-08-29T00:06:18.341Z,1.30
2022-08-29T00:08:45.479Z,1.13
2022-08-29T00:11:12.782Z,1.23
2022-08-29T00:13:39.754Z,1.35
2022-08-29T00:16:06.927Z,1.45
2022-08-29T00:18:34.645Z,1.60
2022-08-29T00:21:02.556Z,1.58
2022-08-29T00:23:30.072Z,1.25
2022-08-29T00:25:57.496Z,1.30
2022-08-29T00:28:24.985Z,1.38
2022-08-29T00:30:53.220Z,1.30
2022-08-29T00:33:20.204Z,1.35
2022-08-29T00:35:47.890Z,1.20
2022-08-29T00:38:19.335Z,1.10
2022-08-29T00:40:57.321Z,1.52
2022-08-29T00:43:31.346Z,1.30
2022-08-29T00:46:35.849Z,1.60
2022-08-29T00:49:08.926Z,1.27
2022-08-29T00:51:36.917Z,1.55
2022-08-29T00:54:08.255Z,1.23
2022-08-29T00:56:39.305Z,1.25
2022-08-29T00:59:18.643Z,1.20
2022-08-29T01:01:46.679Z,1.23
2022-08-29T01:04:22.672Z,1.10
2022-08-29T01:06:53.042Z,1.10
2022-08-29T01:09:21.076Z,1.58
2022-08-29T01:12:07.795Z,1.52
2022-08-29T01:14:38.569Z,1.45
2022-08-29T01:17:09.354Z,1.40
2022-08-29T01:20:00.753Z,1.88
2022-08-29T01:22:47.677Z,1.30
2022-08-29T01:25:21.377Z,1.30
2022-08-29T01:28:00.293Z,1.63
2022-08-29T01:30:27.433Z,1.17
2022-08-29T01:32:57.589Z,1.40
2022-08-29T01:35:25.676Z,1.40
2022-08-29T01:37:53.029Z,1.13
2022-08-29T01:40:20.872Z,1.83
2022-08-29T01:42:48.162Z,1.30
2022-08-29T01:45:15.181Z,1.50
2022-08-29T01:47:42.505Z,1.15
2022-08-29T01:50:13.504Z,1.10
2022-08-29T01:52:42.928Z,1.92
2022-08-29T01:55:11.163Z,1.42
2022-08-29T01:57:39.899Z,1.83
2022-08-29T02:00:10.687Z,1.50
2022-08-29T02:02:39.321Z,1.58
2022-08-29T02:05:08.613Z,1.35
2022-08-29T02:07:35.794Z,1.52
2022-08-29T02:10:03.910Z,1.42
2022-08-29T02:12:31.599Z,1.50
2022-08-29T02:15:00.001Z,1.35
2022-08-29T02:17:27.823Z,1.60
2022-08-29T02:19:55.031Z,1.45
2022-08-29T02:22:22.271Z,1.63
2022-08-29T02:24:49.357Z,1.40
2022-08-29T02:27:16.479Z,1.90
2022-08-29T02:29:43.418Z,1.58
2022-08-29T02:32:13.709Z,1.60
2022-08-29T02:34:47.474Z,1.70
2022-08-29T02:37:15.173Z,1.63
2022-08-29T02:39:42.174Z,1.65
2022-08-29T02:42:09.186Z,1.88
2022-08-29T02:44:36.368Z,1.83
2022-08-29T02:47:03.747Z,1.50
2022-08-29T02:49:30.859Z,1.90
2022-08-29T02:51:59.632Z,1.55
2022-08-29T02:54:26.600Z,1.80
2022-08-29T02:56:53.620Z,1.60
2022-08-29T02:59:20.652Z,1.50
2022-08-29T03:01:47.869Z,1.63
2022-08-29T03:04:15.017Z,1.50
2022-08-29T03:06:42.466Z,1.92
2022-08-29T03:09:09.502Z,1.75
2022-08-29T03:11:36.618Z,1.40
2022-08-29T03:14:03.951Z,1.55
2022-08-29T03:16:31.399Z,1.70
2022-08-29T03:18:58.501Z,1.95
2022-08-29T03:21:27.284Z,1.90
2022-08-29T03:23:56.676Z,1.80
2022-08-29T03:26:24.916Z,1.60
2022-08-29T03:28:52.426Z,1.83
2022-08-29T03:31:19.635Z,1.77
2022-08-29T03:33:46.908Z,1.95
2022-08-29T03:36:14.942Z,1.58
2022-08-29T03:38:43.593Z,1.65
2022-08-29T03:41:11.055Z,1.67
2022-08-29T03:43:38.238Z,2.10
2022-08-29T03:46:05.403Z,1.58
2022-08-29T03:48:33.927Z,1.90
2022-08-29T03:51:01.160Z,1.80
2022-08-29T03:53:28.493Z,1.83
2022-08-29T03:55:57.884Z,1.75
2022-08-29T03:58:25.396Z,1.55
2022-08-29T04:00:54.482Z,1.70
2022-08-29T04:03:22.775Z,1.98
2022-08-29T04:05:57.971Z,2.08
2022-08-29T04:08:24.861Z,1.80
2022-08-29T04:10:51.972Z,1.52
2022-08-29T04:13:19.024Z,1.88
2022-08-29T04:15:46.232Z,1.85
2022-08-29T04:18:13.471Z,2.15
2022-08-29T04:20:45.108Z,1.98
2022-08-29T04:23:14.746Z,2.03
2022-08-29T04:25:43.811Z,2.00
2022-08-29T04:28:12.956Z,1.58
2022-08-29T04:30:51.188Z,1.75
2022-08-29T04:33:24.108Z,1.52
2022-08-29T04:35:52.453Z,2.60
2022-08-29T04:38:20.345Z,2.38
2022-08-29T04:40:48.296Z,1.75
2022-08-29T04:43:15.287Z,2.20
2022-08-29T04:45:42.624Z,2.13
2022-08-29T04:48:10.976Z,2.30
2022-08-29T04:50:38.257Z,2.15
2022-08-29T04:53:05.616Z,1.85
2022-08-29T04:55:33.086Z,2.20
2022-08-29T04:58:01.490Z,2.45
2022-08-29T05:00:30.577Z,2.15
2022-08-29T05:02:58.138Z,1.90
2022-08-29T05:05:25.680Z,2.10
2022-08-29T05:07:53.931Z,2.17
2022-08-29T05:10:22.697Z,1.70
2022-08-29T05:12:49.730Z,2.03
2022-08-29T05:15:18.217Z,2.05
2022-08-29T05:17:45.652Z,2.22
2022-08-29T05:20:13.558Z,2.33
2022-08-29T05:22:42.277Z,1.90
2022-08-29T05:25:15.799Z,2.20
2022-08-29T05:27:45.773Z,2.50
2022-08-29T05:30:12.807Z,2.47
2022-08-29T05:32:39.890Z,2.60
2022-08-29T05:35:07.338Z,1.95
2022-08-29T05:37:34.312Z,2.55
2022-08-29T05:40:06.268Z,2.28
2022-08-29T05:42:35.146Z,2.20
2022-08-29T05:45:04.700Z,2.22
2022-08-29T05:47:32.357Z,2.72
2022-08-29T05:50:00.291Z,2.55
2022-08-29T05:52:28.442Z,2.55
2022-08-29T05:54:55.336Z,2.35
2022-08-29T05:57:23.970Z,2.33
2022-08-29T05:59:54.291Z,2.20
2022-08-29T06:02:23.867Z,2.40
2022-08-29T06:04:51.824Z,2.45
2022-08-29T06:07:19.417Z,2.20
2022-08-29T06:09:47.040Z,2.28
2022-08-29T06:12:15.458Z,3.13
2022-08-29T06:14:50.443Z,2.63
2022-08-29T06:17:18.539Z,2.90
2022-08-29T06:19:46.066Z,2.25
2022-08-29T06:22:13.776Z,2.65
2022-08-29T06:24:44.368Z,2.60
2022-08-29T06:27:13.074Z,2.83
2022-08-29T06:29:43.715Z,2.33
2022-08-29T06:32:11.983Z,2.00
2022-08-29T06:34:39.031Z,2.85
2022-08-29T06:37:05.996Z,3.15
2022-08-29T06:39:32.945Z,2.70
2022-08-29T06:41:59.852Z,2.65
2022-08-29T06:44:30.693Z,2.28
2022-08-29T06:46:59.135Z,2.80
2022-08-29T06:49:27.782Z,3.08
2022-08-29T06:51:58.373Z,3.20
2022-08-29T06:54:28.765Z,2.78
2022-08-29T06:56:57.873Z,3.22
2022-08-29T06:59:25.632Z,2.92
2022-08-29T07:01:55.490Z,3.30
2022-08-29T07:04:22.483Z,2.72
2022-08-29T07:06:50.285Z,2.33
2022-08-29T07:09:19.541Z,2.75
2022-08-29T07:11:46.602Z,2.80
2022-08-29T07:14:13.658Z,2.70
2022-08-29T07:16:42.204Z,2.70
2022-08-29T07:19:10.433Z,2.80
2022-08-29T07:21:38.668Z,3.20
2022-08-29T07:24:07.226Z,2.15
2022-08-29T07:26:39.146Z,3.17
2022-08-29T07:29:14.044Z,3.15
2022-08-29T07:31:41.863Z,2.83
2022-08-29T07:34:09.249Z,2.67
2022-08-29T07:36:37.318Z,3.13
2022-08-29T07:39:08.894Z,3.25
2022-08-29T07:41:37.543Z,2.40
2022-08-29T07:44:04.667Z,3.00
2022-08-29T07:46:32.000Z,2.85
2022-08-29T07:49:00.220Z,3.17
2022-08-29T07:51:28.594Z,2.28
2022-08-29T07:53:57.332Z,2.55
2022-08-29T07:56:34.570Z,2.28
2022-08-29T07:59:04.887Z,2.42
2022-08-29T08:01:32.241Z,2.45
2022-08-29T08:03:59.177Z,2.45
2022-08-29T08:06:27.636Z,2.33
2022-08-29T08:08:55.670Z,2.33
2022-08-29T08:11:24.556Z,2.17
2022-08-29T08:13:53.797Z,1.90
2022-08-29T08:16:24.663Z,1.65
2022-08-29T08:18:52.227Z,1.90
2022-08-29T08:21:19.376Z,1.65
2022-08-29T08:23:46.640Z,1.70
2022-08-29T08:26:15.412Z,1.70
2022-08-29T08:28:43.836Z,1.70
2022-08-29T08:31:14.128Z,1.35
2022-08-29T08:33:42.359Z,1.45
2022-08-29T08:36:20.573Z,1.60
2022-08-29T08:38:49.464Z,1.20
2022-08-29T08:41:28.929Z,1.63
2022-08-29T08:44:29.067Z,1.40
2022-08-29T08:47:06.070Z,1.90
2022-08-29T08:50:15.671Z,1.70
2022-08-29T08:53:07.014Z,1.50
2022-08-29T08:55:52.112Z,2.03
2022-08-29T08:59:01.246Z,1.67
2022-08-29T09:01:36.539Z,1.73
2022-08-29T09:04:29.415Z,1.60
2022-08-29T09:09:58.335Z,1.95
2022-08-29T09:12:36.650Z,2.22
2022-08-29T09:15:13.581Z,1.50
2022-08-29T09:17:47.393Z,1.88
2022-08-29T09:20:20.289Z,1.88
2022-08-29T09:23:03.386Z,1.67
2022-08-29T09:25:31.807Z,2.00
2022-08-29T09:27:59.292Z,2.10
2022-08-29T09:30:30.059Z,2.10
2022-08-29T09:33:12.211Z,1.75
2022-08-29T09:35:42.791Z,2.05
2022-08-29T09:38:18.674Z,2.05
2022-08-29T09:40:47.973Z,1.80
2022-08-29T09:43:46.167Z,2.33
2022-08-29T09:46:23.476Z,2.55
2022-08-29T09:48:53.503Z,1.95
2022-08-29T09:51:36.050Z,2.33
2022-08-29T09:54:28.305Z,1.88
2022-08-29T09:59:52.827Z,2.03
2022-08-29T10:02:30.312Z,2.13
2022-08-29T10:05:06.142Z,2.55
2022-08-29T10:07:51.299Z,2.83
2022-08-29T10:10:21.174Z,2.35
2022-08-29T10:13:12.038Z,1.75
2022-08-29T10:15:51.702Z,2.17
2022-08-29T10:18:28.755Z,2.05
2022-08-29T10:21:10.396Z,2.15
2022-08-29T10:24:15.994Z,1.90
2022-08-29T10:27:31.382Z,2.00
2022-08-29T10:30:07.053Z,2.08
2022-08-29T10:33:04.873Z,2.30
2022-08-29T10:35:54.580Z,2.35
2022-08-29T10:38:51.320Z,2.40
2022-08-29T10:41:57.192Z,2.05
2022-08-29T10:44:33.467Z,2.00
2022-08-29T10:47:24.620Z,2.33
2022-08-29T10:49:57.754Z,2.75
2022-08-29T10:52:48.862Z,1.98
2022-08-29T10:55:33.370Z,2.30
2022-08-29T10:58:12.839Z,2.35
2022-08-29T11:00:57.621Z,2.15
2022-08-29T11:03:40.416Z,2.70
2022-08-29T11:06:22.310Z,2.67
2022-08-29T11:11:23.982Z,2.38
2022-08-29T11:14:03.611Z,1.92
2022-08-29T11:16:36.394Z,2.00
2022-08-29T11:19:21.565Z,2.05
2022-08-29T11:21:58.931Z,2.00
2022-08-29T11:24:34.202Z,2.00
2022-08-29T11:27:28.305Z,2.03
2022-08-29T11:30:05.975Z,2.28
2022-08-29T11:32:47.748Z,2.08
2022-08-29T11:35:20.504Z,2.28
2022-08-29T11:38:00.591Z,1.95
2022-08-29T11:43:50.000Z,1.67
2022-08-29T11:46:39.895Z,1.52
2022-08-29T11:49:32.073Z,1.60
2022-08-29T11:52:13.614Z,1.42
2022-08-29T11:54:43.510Z,1.58
2022-08-29T11:57:10.571Z,1.45
2022-08-29T11:59:49.610Z,1.70
2022-08-29T12:02:30.077Z,1.65
2022-08-29T12:05:16.746Z,1.70
2022-08-29T12:07:52.076Z,1.58
2022-08-29T12:10:24.722Z,2.13
2022-08-29T12:12:55.117Z,1.50
2022-08-29T12:15:28.189Z,1.95
2022-08-29T12:18:03.482Z,1.60
2022-08-29T12:20:31.117Z,1.85
2022-08-29T12:22:59.855Z,1.80
2022-08-29T12:28:59.441Z,1.77
2022-08-29T12:31:35.372Z,1.70
2022-08-29T12:34:28.727Z,1.65
2022-08-29T12:40:08.188Z,1.70
2022-08-29T12:42:38.053Z,2.00
2022-08-29T12:45:20.462Z,1.65
2022-08-29T12:47:55.125Z,1.95
2022-08-29T12:50:35.937Z,1.80
2022-08-29T12:53:02.933Z,2.15
2022-08-29T12:55:42.137Z,1.98
2022-08-29T12:58:12.397Z,2.00
2022-08-29T13:00:39.727Z,2.10
2022-08-29T13:03:20.580Z,1.95
2022-08-29T13:05:48.137Z,1.98
2022-08-29T13:08:39.370Z,1.77
2022-08-29T13:11:09.893Z,2.17
2022-08-29T13:13:38.768Z,1.80
2022-08-29T13:16:22.355Z,1.90
2022-08-29T13:19:07.757Z,2.20
2022-08-29T13:21:36.820Z,2.05
2022-08-29T13:24:13.545Z,2.05
2022-08-29T13:27:04.283Z,2.38
2022-08-29T13:29:42.142Z,1.90
2022-08-29T13:32:23.970Z,1.83
2022-08-29T13:35:00.238Z,2.08
2022-08-29T13:37:35.232Z,2.20
2022-08-29T13:40:38.622Z,2.03
2022-08-29T13:43:06.659Z,2.33
2022-08-29T13:45:35.500Z,1.95
2022-08-29T13:48:13.437Z,1.83
2022-08-29T13:50:40.992Z,1.80
2022-08-29T13:53:08.098Z,1.80
2022-08-29T13:55:35.405Z,2.17
2022-08-29T13:58:03.626Z,1.92
2022-08-29T14:00:35.585Z,2.25
2022-08-29T14:03:06.029Z,1.83
2022-08-29T14:05:33.180Z,1.70
2022-08-29T14:08:00.145Z,2.00
2022-08-29T14:10:27.371Z,2.03
2022-08-29T14:12:54.317Z,1.60
2022-08-29T14:15:21.362Z,1.52
2022-08-29T14:17:48.949Z,1.67
2022-08-29T14:20:18.052Z,2.17
2022-08-29T14:22:46.986Z,1.90
2022-08-29T14:25:16.522Z,2.30
2022-08-29T14:27:44.775Z,1.70
2022-08-29T14:30:14.746Z,2.67
2022-08-29T14:32:41.979Z,1.85
2022-08-29T14:35:10.990Z,1.90
2022-08-29T14:37:53.418Z,1.90
2022-08-29T14:40:21.859Z,1.90
2022-08-29T14:42:49.474Z,2.20
2022-08-29T14:45:16.799Z,1.85
2022-08-29T14:47:45.783Z,1.85
2022-08-29T14:50:14.393Z,2.20
2022-08-29T14:52:42.943Z,1.80
2022-08-29T14:55:11.048Z,2.10
2022-08-29T14:57:38.802Z,1.88
2022-08-29T15:00:09.732Z,1.63
2022-08-29T15:02:36.868Z,1.50
2022-08-29T15:05:04.111Z,1.60
2022-08-29T15:07:31.151Z,1.55
2022-08-29T15:09:58.557Z,1.88
2022-08-29T15:12:28.326Z,1.80
2022-08-29T15:14:55.956Z,1.73
2022-08-29T15:17:23.875Z,1.70
2022-08-29T15:22:39.326Z,1.58
2022-08-29T15:25:07.048Z,2.13
2022-08-29T15:27:34.590Z,1.83
2022-08-29T15:30:02.650Z,2.00
2022-08-29T15:32:30.517Z,2.10
2022-08-29T15:34:57.464Z,2.03
2022-08-29T15:37:24.497Z,2.00
2022-08-29T15:39:54.520Z,1.98
2022-08-29T15:42:28.528Z,1.90
2022-08-29T15:44:59.407Z,1.88
2022-08-29T15:47:29.696Z,2.03
2022-08-29T15:49:57.212Z,1.90
2022-08-29T15:52:24.192Z,2.10
2022-08-29T15:54:51.335Z,2.20
2022-08-29T15:57:19.176Z,2.13
2022-08-29T16:00:02.070Z,2.20
2022-08-29T16:05:06.520Z,2.10
2022-08-29T16:07:34.808Z,2.20
2022-08-29T16:10:05.800Z,2.25
2022-08-29T16:12:39.789Z,1.90
2022-08-29T16:15:09.794Z,2.30
2022-08-29T16:17:38.073Z,2.63
2022-08-29T16:20:10.660Z,2.22
2022-08-29T16:22:39.962Z,2.08
2022-08-29T16:25:08.576Z,2.28
2022-08-29T16:27:36.397Z,2.42
2022-08-29T16:30:04.156Z,2.63
2022-08-29T16:32:31.319Z,2.10
2022-08-29T16:34:58.943Z,2.15
2022-08-29T16:37:26.806Z,2.10
2022-08-29T16:39:54.571Z,1.85
2022-08-29T16:42:24.089Z,2.08
2022-08-29T16:44:53.439Z,2.35
2022-08-29T16:47:21.954Z,2.33
2022-08-29T16:49:48.993Z,2.38
2022-08-29T16:52:16.233Z,2.30
2022-08-29T16:54:43.509Z,2.42
2022-08-29T16:57:11.090Z,2.47
2022-08-29T16:59:38.779Z,2.47
2022-08-29T17:02:06.184Z,2.28
2022-08-29T17:04:33.872Z,2.00
2022-08-29T17:07:02.491Z,1.65
2022-08-29T17:09:29.824Z,2.13
2022-08-29T17:12:04.662Z,2.20
2022-08-29T17:14:34.427Z,2.10
2022-08-29T17:17:03.043Z,2.38
2022-08-29T17:19:30.928Z,2.47
2022-08-29T17:22:01.410Z,1.70
2022-08-29T17:24:28.398Z,2.03
2022-08-29T17:26:55.351Z,2.55
2022-08-29T17:29:22.676Z,2.08
2022-08-29T17:31:50.139Z,2.03
2022-08-29T17:34:18.039Z,1.88
2022-08-29T17:36:45.081Z,1.92
2022-08-29T17:39:12.725Z,2.45
2022-08-29T17:41:40.072Z,2.22
2022-08-29T17:44:08.775Z,1.77
2022-08-29T17:46:36.473Z,2.05
2022-08-29T17:49:07.820Z,1.90
2022-08-29T17:51:35.852Z,2.55
2022-08-29T17:54:04.581Z,2.10
2022-08-29T17:56:44.488Z,1.85
2022-08-29T17:59:14.052Z,2.10
2022-08-29T18:01:42.298Z,1.70
2022-08-29T18:04:13.305Z,2.00
2022-08-29T18:06:41.229Z,2.15
2022-08-29T18:09:08.957Z,2.33
2022-08-29T18:11:39.542Z,2.22
2022-08-29T18:14:07.712Z,2.10
2022-08-29T18:16:35.791Z,2.30
2022-08-29T18:19:06.006Z,2.00
2022-08-29T18:21:33.552Z,2.00
2022-08-29T18:24:01.434Z,2.38
2022-08-29T18:26:30.288Z,2.00
2022-08-29T18:28:57.876Z,2.10
2022-08-29T18:31:25.082Z,1.70
2022-08-29T18:34:00.987Z,2.28
2022-08-29T18:36:30.387Z,2.13
2022-08-29T18:38:57.561Z,2.25
2022-08-29T18:41:24.583Z,2.10
2022-08-29T18:43:52.110Z,2.22
2022-08-29T18:46:19.680Z,2.20
2022-08-29T18:48:46.818Z,2.10
2022-08-29T18:51:14.698Z,2.47
2022-08-29T18:53:42.054Z,1.80
2022-08-29T18:56:09.103Z,2.67
2022-08-29T18:58:36.441Z,2.08
2022-08-29T19:01:17.187Z,2.10
2022-08-29T19:03:58.293Z,2.10
2022-08-29T19:06:26.149Z,2.15
2022-08-29T19:08:56.957Z,1.88
2022-08-29T19:11:25.531Z,2.20
2022-08-29T19:13:53.019Z,2.20
2022-08-29T19:16:22.613Z,2.17
2022-08-29T19:18:50.701Z,2.30
2022-08-29T19:21:18.820Z,2.08
2022-08-29T19:23:52.191Z,2.15
2022-08-29T19:26:23.653Z,2.08
2022-08-29T19:28:53.103Z,1.98
2022-08-29T19:31:23.053Z,2.22
2022-08-29T19:33:51.345Z,2.15
2022-08-29T19:36:18.473Z,1.98
2022-08-29T19:38:46.137Z,2.22
2022-08-29T19:41:15.540Z,3.10
2022-08-29T19:43:43.172Z,2.20
2022-08-29T19:46:16.477Z,2.40
2022-08-29T19:48:44.900Z,2.28
2022-08-29T19:51:17.583Z,2.15
2022-08-29T19:53:44.615Z,2.20
2022-08-29T19:56:12.362Z,2.20
2022-08-29T19:58:39.664Z,2.10
2022-08-29T20:01:09.306Z,1.95
2022-08-29T20:03:41.538Z,2.40
2022-08-29T20:06:09.304Z,1.90
2022-08-29T20:08:42.103Z,2.03
2022-08-29T20:11:14.332Z,2.40
2022-08-29T20:13:47.561Z,2.38
2022-08-29T20:16:19.520Z,2.55
2022-08-29T20:18:50.230Z,2.17
2022-08-29T20:21:19.271Z,2.00
2022-08-29T20:23:49.620Z,2.00
2022-08-29T20:26:17.636Z,2.42
2022-08-29T20:28:44.923Z,2.95
2022-08-29T20:31:12.727Z,2.00
2022-08-29T20:33:41.439Z,2.40
2022-08-29T20:36:27.555Z,2.90
2022-08-29T20:38:54.929Z,2.47
2022-08-29T20:41:22.006Z,2.33
2022-08-29T20:43:48.894Z,2.22
2022-08-29T20:46:15.999Z,2.55
2022-08-29T20:48:43.251Z,2.85
2022-08-29T20:51:11.510Z,2.70
2022-08-29T20:53:43.248Z,2.92
2022-08-29T20:56:11.216Z,2.78
2022-08-29T20:58:38.683Z,2.70
2022-08-29T21:01:06.075Z,2.60
2022-08-29T21:03:52.805Z,2.75
2022-08-29T21:06:21.358Z,2.50
2022-08-29T21:08:48.936Z,2.80
2022-08-29T21:11:16.394Z,2.35
2022-08-29T21:13:43.688Z,2.80
2022-08-29T21:16:11.715Z,2.83
2022-08-29T21:18:39.149Z,2.20
2022-08-29T21:21:07.529Z,2.75
2022-08-29T21:23:34.745Z,2.03
2022-08-29T21:26:02.445Z,2.42
2022-08-29T21:28:32.834Z,2.50
2022-08-29T21:31:11.746Z,2.35
2022-08-29T21:33:44.451Z,2.25
2022-08-29T21:36:18.831Z,2.22
2022-08-29T21:38:47.660Z,2.75
2022-08-29T21:41:15.933Z,2.30
2022-08-29T21:43:43.364Z,2.42
2022-08-29T21:46:26.708Z,2.30
2022-08-29T21:48:57.553Z,2.33
2022-08-29T21:51:25.840Z,2.53
2022-08-29T21:53:58.685Z,2.83
2022-08-29T21:56:28.220Z,2.40
2022-08-29T21:58:56.799Z,2.92
2022-08-29T22:01:27.643Z,3.03
2022-08-29T22:03:55.132Z,2.80
2022-08-29T22:06:24.211Z,2.60
2022-08-29T22:08:56.146Z,2.65
2022-08-29T22:11:37.178Z,2.70
2022-08-29T22:14:05.932Z,2.80
2022-08-29T22:16:33.592Z,2.40
2022-08-29T22:19:08.490Z,2.78
2022-08-29T22:21:42.007Z,2.60
2022-08-29T22:24:12.857Z,3.00
2022-08-29T22:26:41.348Z,2.70
2022-08-29T22:29:12.093Z,2.60
2022-08-29T22:31:42.280Z,2.70
2022-08-29T22:34:14.836Z,2.53
2022-08-29T22:36:43.048Z,2.90
2022-08-29T22:39:11.033Z,2.85
2022-08-29T22:41:38.230Z,3.03
2022-08-29T22:44:52.695Z,3.28
2022-08-29T22:46:55.644Z,3.00
2022-08-29T22:49:23.556Z,2.67
2022-08-29T22:51:54.948Z,2.92
2022-08-29T22:54:37.114Z,2.55
2022-08-29T22:59:39.395Z,3.42
2022-08-29T23:02:08.052Z,2.80
2022-08-29T23:04:36.453Z,2.95
2022-08-29T23:07:04.481Z,2.90
2022-08-29T23:09:35.536Z,2.28
2022-08-29T23:12:08.008Z,2.40
2022-08-29T23:14:37.423Z,2.70
2022-08-29T23:17:08.772Z,3.13
2022-08-29T23:19:37.176Z,3.00
2022-08-29T23:22:08.979Z,2.67
2022-08-29T23:24:36.157Z,2.63
2022-08-29T23:27:03.631Z,2.80
2022-08-29T23:29:32.916Z,3.28
2022-08-29T23:32:00.972Z,2.35
2022-08-29T23:34:28.754Z,3.00
2022-08-29T23:36:56.397Z,3.28
2022-08-29T23:39:24.385Z,2.97
2022-08-29T23:41:52.036Z,2.83
2022-08-29T23:44:19.319Z,2.72
2022-08-29T23:46:46.522Z,3.03
2022-08-29T23:49:13.813Z,2.95
2022-08-29T23:51:41.302Z,3.33
2022-08-29T23:54:08.895Z,2.72
2022-08-29T23:56:36.154Z,3.28
2022-08-29T23:59:03.396Z,3.10
